DAL2598 KSAT-KLAX
Flight info
| Callsign | DAL2598 |
|---|---|
| Flight time | N/A |
| Altitude | 30000 |
| Route | ALISS7 ALISS FST ELP J50 SSO J4 WLVRN ESTWD HLYWD1 |
| Aircraft | A319/M-SDE3FGHIRWY/LB1 |
Departure
| Time | 2026-05-08 21:55 |
|---|---|
| Airport | San Antonio International Airport (KSAT) |
Arrival
| Time | N/A |
|---|---|
| Airport | Los Angeles International Airport (KLAX) |
| Time | Latitude | Longitude | Altitude | Speed | Heading |
|---|---|---|---|---|---|
| 2026-05-08 21:29 | 29.52468 | -98.47227 | 798 ft | 0 kts | 337° |
| 2026-05-08 21:46 | 29.52466 | -98.47226 | 798 ft | 3 kts | 337° |
| 2026-05-08 21:46 | 29.52445 | -98.47215 | 798 ft | 3 kts | 335° |
| 2026-05-08 21:47 | 29.52425 | -98.47206 | 798 ft | 3 kts | 335° |
| 2026-05-08 21:47 | 29.52409 | -98.47192 | 798 ft | 3 kts | 286° |
| 2026-05-08 21:47 | 29.52410 | -98.47169 | 798 ft | 3 kts | 239° |
| 2026-05-08 21:47 | 29.52422 | -98.47152 | 798 ft | 0 kts | 224° |
| 2026-05-08 21:52 | 29.52420 | -98.47154 | 798 ft | 2 kts | 223° |
| 2026-05-08 21:53 | 29.52388 | -98.47159 | 798 ft | 7 kts | 155° |
| 2026-05-08 21:53 | 29.52377 | -98.47109 | 798 ft | 7 kts | 66° |
| 2026-05-08 21:53 | 29.52385 | -98.47052 | 798 ft | 7 kts | 108° |
| 2026-05-08 21:53 | 29.52351 | -98.47011 | 798 ft | 7 kts | 131° |
| 2026-05-08 21:54 | 29.52351 | -98.46964 | 798 ft | 6 kts | 45° |
| 2026-05-08 21:54 | 29.52389 | -98.46926 | 798 ft | 11 kts | 40° |
| 2026-05-08 21:54 | 29.52591 | -98.46727 | 798 ft | 72 kts | 40° |
| 2026-05-08 21:54 | 29.53131 | -98.46195 | 798 ft | 131 kts | 40° |
| 2026-05-08 21:55 | 29.53932 | -98.45408 | 968 ft | 159 kts | 40° |
| 2026-05-08 21:55 | 29.54757 | -98.44601 | 1547 ft | 159 kts | 39° |
| 2026-05-08 21:55 | 29.55614 | -98.43766 | 2107 ft | 163 kts | 40° |
| 2026-05-08 21:56 | 29.57986 | -98.42761 | 2569 ft | 212 kts | 1° |
| 2026-05-08 21:56 | 29.59485 | -98.43191 | 2797 ft | 238 kts | 329° |
| 2026-05-08 21:56 | 29.60722 | -98.44592 | 3177 ft | 262 kts | 311° |
| 2026-05-08 21:56 | 29.61969 | -98.46181 | 3868 ft | 272 kts | 314° |
| 2026-05-08 21:57 | 29.63301 | -98.47755 | 4648 ft | 278 kts | 315° |
| 2026-05-08 21:57 | 29.64679 | -98.49349 | 5414 ft | 284 kts | 315° |
| 2026-05-08 21:57 | 29.66088 | -98.50975 | 6199 ft | 289 kts | 314° |
| 2026-05-08 21:57 | 29.67507 | -98.52631 | 6962 ft | 293 kts | 312° |
| 2026-05-08 21:58 | 29.68930 | -98.54310 | 7777 ft | 293 kts | 311° |
| 2026-05-08 21:58 | 29.70355 | -98.56006 | 8536 ft | 295 kts | 310° |
| 2026-05-08 21:58 | 29.71793 | -98.57719 | 9217 ft | 300 kts | 310° |
| 2026-05-08 21:58 | 29.73247 | -98.59456 | 9910 ft | 302 kts | 310° |
| 2026-05-08 21:59 | 29.74731 | -98.61234 | 10297 ft | 317 kts | 310° |
| 2026-05-08 21:59 | 29.76306 | -98.63134 | 10461 ft | 338 kts | 310° |
| 2026-05-08 21:59 | 29.77955 | -98.65122 | 10949 ft | 346 kts | 310° |
| 2026-05-08 21:59 | 29.79573 | -98.67193 | 11604 ft | 348 kts | 308° |
| 2026-05-08 22:00 | 29.81122 | -98.69339 | 12321 ft | 349 kts | 306° |
| 2026-05-08 22:00 | 29.82641 | -98.71527 | 13031 ft | 350 kts | 306° |
| 2026-05-08 22:00 | 29.84158 | -98.73730 | 13698 ft | 352 kts | 305° |
| 2026-05-08 22:00 | 29.85687 | -98.75943 | 14318 ft | 355 kts | 306° |
| 2026-05-08 22:01 | 29.87218 | -98.78135 | 14938 ft | 357 kts | 306° |
| 2026-05-08 22:01 | 29.88811 | -98.80387 | 15541 ft | 359 kts | 306° |
| 2026-05-08 22:01 | 29.90381 | -98.82601 | 16143 ft | 362 kts | 305° |
| 2026-05-08 22:01 | 29.91980 | -98.84858 | 16738 ft | 364 kts | 305° |
| 2026-05-08 22:02 | 29.93585 | -98.87122 | 17321 ft | 367 kts | 305° |
| 2026-05-08 22:02 | 29.95205 | -98.89404 | 17904 ft | 369 kts | 305° |
| 2026-05-08 22:02 | 29.96833 | -98.91703 | 18497 ft | 371 kts | 305° |
| 2026-05-08 22:02 | 29.98470 | -98.94014 | 19067 ft | 373 kts | 304° |
| 2026-05-08 22:03 | 30.00113 | -98.96338 | 19628 ft | 375 kts | 304° |
| 2026-05-08 22:03 | 30.01766 | -98.98677 | 20195 ft | 376 kts | 304° |
| 2026-05-08 22:03 | 30.03423 | -99.01024 | 20765 ft | 378 kts | 304° |
| 2026-05-08 22:03 | 30.05084 | -99.03379 | 21318 ft | 379 kts | 303° |
| 2026-05-08 22:04 | 30.06752 | -99.05749 | 21844 ft | 381 kts | 303° |
| 2026-05-08 22:04 | 30.08422 | -99.08126 | 22358 ft | 382 kts | 303° |
| 2026-05-08 22:04 | 30.10103 | -99.10516 | 22846 ft | 384 kts | 303° |
| 2026-05-08 22:04 | 30.11789 | -99.12913 | 23322 ft | 385 kts | 303° |
| 2026-05-08 22:05 | 30.13404 | -99.15372 | 23788 ft | 381 kts | 295° |
| 2026-05-08 22:05 | 30.14422 | -99.18145 | 24211 ft | 373 kts | 281° |
| 2026-05-08 22:05 | 30.15093 | -99.21038 | 24626 ft | 374 kts | 280° |
| 2026-05-08 22:05 | 30.15761 | -99.23956 | 25024 ft | 376 kts | 280° |
| 2026-05-08 22:06 | 30.16426 | -99.26881 | 25408 ft | 378 kts | 279° |
| 2026-05-08 22:06 | 30.16870 | -99.28830 | 25662 ft | 379 kts | 279° |
| 2026-05-08 22:06 | 30.17542 | -99.31787 | 26025 ft | 381 kts | 279° |
| 2026-05-08 22:06 | 30.18219 | -99.34759 | 26398 ft | 383 kts | 279° |
| 2026-05-08 22:07 | 30.18900 | -99.37739 | 26756 ft | 385 kts | 279° |
| 2026-05-08 22:07 | 30.19585 | -99.40737 | 27120 ft | 386 kts | 279° |
| 2026-05-08 22:07 | 30.20266 | -99.43752 | 27452 ft | 389 kts | 278° |
| 2026-05-08 22:07 | 30.20950 | -99.46784 | 27810 ft | 390 kts | 278° |
| 2026-05-08 22:08 | 30.21637 | -99.49828 | 28136 ft | 392 kts | 278° |
| 2026-05-08 22:08 | 30.22329 | -99.52883 | 28462 ft | 394 kts | 278° |
| 2026-05-08 22:08 | 30.23025 | -99.55954 | 28766 ft | 395 kts | 278° |
| 2026-05-08 22:08 | 30.23720 | -99.59030 | 29063 ft | 397 kts | 278° |
| 2026-05-08 22:09 | 30.24419 | -99.62128 | 29360 ft | 398 kts | 278° |
| 2026-05-08 22:09 | 30.25120 | -99.65233 | 29659 ft | 400 kts | 278° |
| 2026-05-08 22:09 | 30.25822 | -99.68346 | 29859 ft | 401 kts | 278° |
| 2026-05-08 22:09 | 30.26518 | -99.71429 | 29905 ft | 389 kts | 278° |
| 2026-05-08 22:10 | 30.27195 | -99.74415 | 29906 ft | 381 kts | 277° |
| 2026-05-08 22:10 | 30.28519 | -99.80308 | 29906 ft | 377 kts | 277° |
| 2026-05-08 22:11 | 30.29826 | -99.86183 | 29904 ft | 377 kts | 277° |
| 2026-05-08 22:11 | 30.31127 | -99.92056 | 29905 ft | 377 kts | 277° |
| 2026-05-08 22:12 | 30.32428 | -99.97894 | 29905 ft | 377 kts | 277° |
| 2026-05-08 22:12 | 30.33735 | -100.03761 | 29902 ft | 377 kts | 277° |
| 2026-05-08 22:13 | 30.35041 | -100.09642 | 29903 ft | 376 kts | 277° |
| 2026-05-08 22:13 | 30.36337 | -100.15509 | 29902 ft | 376 kts | 277° |
| 2026-05-08 22:14 | 30.37628 | -100.21384 | 29902 ft | 376 kts | 277° |
| 2026-05-08 22:14 | 30.38918 | -100.27256 | 29903 ft | 376 kts | 277° |
| 2026-05-08 22:15 | 30.40209 | -100.33132 | 29906 ft | 376 kts | 277° |
| 2026-05-08 22:15 | 30.41500 | -100.39010 | 29907 ft | 376 kts | 277° |
| 2026-05-08 22:16 | 30.42786 | -100.44888 | 29910 ft | 377 kts | 277° |
| 2026-05-08 22:16 | 30.44068 | -100.50768 | 29913 ft | 376 kts | 277° |
| 2026-05-08 22:17 | 30.45347 | -100.56652 | 29913 ft | 376 kts | 277° |
| 2026-05-08 22:17 | 30.46613 | -100.62498 | 29915 ft | 377 kts | 277° |
| 2026-05-08 22:18 | 30.47886 | -100.68392 | 29919 ft | 377 kts | 277° |
| 2026-05-08 22:18 | 30.49161 | -100.74289 | 29919 ft | 377 kts | 277° |
| 2026-05-08 22:19 | 30.50435 | -100.80193 | 29920 ft | 377 kts | 277° |
| 2026-05-08 22:19 | 30.51707 | -100.86113 | 29924 ft | 378 kts | 277° |
| 2026-05-08 22:20 | 30.52987 | -100.92039 | 29919 ft | 379 kts | 277° |